createdAt,value
2022-10-30T00:04:14.305Z,11.23
2022-10-30T00:09:20.273Z,11.19
2022-10-30T00:14:26.583Z,11.13
2022-10-30T00:19:34.129Z,11.24
2022-10-30T00:24:40.710Z,11.29
2022-10-30T00:29:47.180Z,11.15
2022-10-30T00:34:54.709Z,11.19
2022-10-30T00:40:02.331Z,11.17
2022-10-30T00:45:12.876Z,11.06
2022-10-30T00:55:52.085Z,11.16
2022-10-30T01:01:12.319Z,11.20
2022-10-30T01:06:21.259Z,11.13
2022-10-30T01:11:29.020Z,11.20
2022-10-30T01:17:14.477Z,11.26
2022-10-30T01:22:37.780Z,11.32
2022-10-30T01:27:56.884Z,11.36
2022-10-30T01:33:27.451Z,11.36
2022-10-30T01:38:43.927Z,11.32
2022-10-30T01:43:55.074Z,11.31
2022-10-30T01:49:46.550Z,11.33
2022-10-30T01:55:06.010Z,11.30
2022-10-30T02:00:20.497Z,11.31
2022-10-30T02:05:37.983Z,11.24
2022-10-30T02:10:49.401Z,11.21
2022-10-30T02:15:55.534Z,11.25
2022-10-30T02:21:03.438Z,11.28
2022-10-30T02:26:09.569Z,11.22
2022-10-30T02:31:16.696Z,11.27
2022-10-30T02:36:27.221Z,11.28
2022-10-30T02:41:35.144Z,11.31
2022-10-30T02:46:41.345Z,11.22
2022-10-30T02:51:50.270Z,11.25
2022-10-30T02:56:56.657Z,11.29
2022-10-30T03:02:02.749Z,11.29
2022-10-30T03:07:10.865Z,11.32
2022-10-30T03:12:20.568Z,11.35
2022-10-30T03:17:29.877Z,11.26
2022-10-30T03:22:40.240Z,11.30
2022-10-30T03:27:57.355Z,11.31
2022-10-30T03:33:05.889Z,11.31
2022-10-30T03:38:15.464Z,11.24
2022-10-30T03:43:23.528Z,11.30
2022-10-30T03:48:32.333Z,11.31
2022-10-30T03:53:40.832Z,11.32
2022-10-30T03:58:47.120Z,11.32
2022-10-30T04:04:01.362Z,11.32
2022-10-30T04:09:09.750Z,11.30
2022-10-30T04:19:43.219Z,11.29
2022-10-30T04:24:53.848Z,11.27
2022-10-30T04:30:03.874Z,11.26
2022-10-30T04:35:11.803Z,11.27
2022-10-30T04:40:19.377Z,11.30
2022-10-30T04:45:33.168Z,11.30
2022-10-30T04:50:40.861Z,11.31
2022-10-30T04:55:55.024Z,11.32
2022-10-30T05:01:03.634Z,11.33
2022-10-30T05:06:22.848Z,11.33
2022-10-30T05:11:31.104Z,11.32
2022-10-30T05:16:38.000Z,11.32
2022-10-30T05:21:45.363Z,11.31
2022-10-30T05:26:54.032Z,11.24
2022-10-30T05:32:01.672Z,11.24
2022-10-30T05:37:19.470Z,11.26
2022-10-30T05:42:27.176Z,11.27
2022-10-30T05:47:35.539Z,11.29
2022-10-30T05:52:41.888Z,11.29
2022-10-30T05:57:49.426Z,11.27
2022-10-30T06:03:00.840Z,11.27
2022-10-30T06:08:17.038Z,11.23
2022-10-30T06:13:26.594Z,11.18
2022-10-30T06:18:37.565Z,11.17
2022-10-30T06:23:51.048Z,11.19
2022-10-30T06:29:11.327Z,11.21
2022-10-30T06:34:17.538Z,11.26
2022-10-30T06:39:24.533Z,11.26
2022-10-30T06:44:49.257Z,11.29
2022-10-30T06:49:56.401Z,11.36
2022-10-30T06:55:02.773Z,11.39
2022-10-30T07:00:23.963Z,11.43
2022-10-30T07:05:56.005Z,11.47
2022-10-30T07:11:02.374Z,11.52
2022-10-30T07:16:26.837Z,11.63
2022-10-30T07:21:33.092Z,11.65
2022-10-30T07:26:43.129Z,11.73
2022-10-30T07:32:09.835Z,11.75
2022-10-30T07:37:36.734Z,11.80
2022-10-30T07:42:48.579Z,11.84
2022-10-30T07:48:20.628Z,11.91
2022-10-30T07:53:39.386Z,12.02
2022-10-30T07:58:46.646Z,12.06
2022-10-30T08:04:15.318Z,12.09
2022-10-30T08:09:21.352Z,12.10
2022-10-30T08:14:27.941Z,12.12
2022-10-30T08:19:37.026Z,12.13
2022-10-30T08:24:45.216Z,12.16
2022-10-30T08:29:52.271Z,12.19
2022-10-30T08:35:00.413Z,12.32
2022-10-30T08:40:11.639Z,12.33
2022-10-30T08:45:29.912Z,12.43
2022-10-30T08:50:55.990Z,12.44
2022-10-30T08:56:08.365Z,12.46
2022-10-30T09:01:31.270Z,12.50
2022-10-30T09:07:02.116Z,12.51
2022-10-30T09:12:17.286Z,12.55
2022-10-30T09:17:26.414Z,12.62
2022-10-30T09:22:34.650Z,12.61
2022-10-30T09:27:44.757Z,12.61
2022-10-30T09:32:59.540Z,12.61
2022-10-30T09:38:29.880Z,12.64
2022-10-30T09:44:04.726Z,12.74
2022-10-30T09:49:49.124Z,12.82
2022-10-30T09:56:06.337Z,12.86
2022-10-30T10:01:24.904Z,12.86
2022-10-30T10:06:45.094Z,12.87
2022-10-30T10:12:09.539Z,12.86
2022-10-30T10:17:48.296Z,12.91
2022-10-30T10:23:00.822Z,12.99
2022-10-30T10:28:26.584Z,13.03
2022-10-30T10:33:55.198Z,12.99
2022-10-30T10:39:37.063Z,13.01
2022-10-30T10:45:00.332Z,13.02
2022-10-30T10:50:23.354Z,13.03
2022-10-30T10:56:01.269Z,13.04
2022-10-30T11:01:16.136Z,13.03
2022-10-30T11:06:28.261Z,13.05
2022-10-30T11:11:34.886Z,13.05
2022-10-30T11:17:02.430Z,13.05
2022-10-30T11:22:22.929Z,13.04
2022-10-30T11:27:32.473Z,13.05
2022-10-30T11:32:41.683Z,13.06
2022-10-30T11:37:48.970Z,13.07
2022-10-30T11:43:01.257Z,13.08
2022-10-30T11:48:21.982Z,13.10
2022-10-30T11:53:35.406Z,13.11
2022-10-30T11:58:47.635Z,13.13
2022-10-30T12:04:56.795Z,13.17
2022-10-30T12:10:04.880Z,13.14
2022-10-30T12:15:24.719Z,13.18
2022-10-30T12:20:38.918Z,13.19
2022-10-30T12:25:50.653Z,13.21
2022-10-30T12:31:03.086Z,13.22
2022-10-30T12:36:16.150Z,13.22
2022-10-30T12:41:30.349Z,13.19
2022-10-30T12:46:47.334Z,13.26
2022-10-30T13:00:20.621Z,13.27
2022-10-30T13:05:39.631Z,13.30
2022-10-30T13:10:54.318Z,13.32
2022-10-30T13:16:06.681Z,13.34
2022-10-30T13:21:29.496Z,13.33
2022-10-30T13:26:44.649Z,13.31
2022-10-30T13:32:15.622Z,13.28
2022-10-30T13:37:30.978Z,13.27
2022-10-30T13:43:00.706Z,13.25
2022-10-30T13:48:21.971Z,13.24
2022-10-30T13:53:31.305Z,13.23
2022-10-30T13:58:47.183Z,13.21
2022-10-30T14:04:07.548Z,13.19
2022-10-30T14:09:32.379Z,13.15
2022-10-30T14:14:51.203Z,13.14
2022-10-30T14:20:30.618Z,13.15
2022-10-30T14:25:41.888Z,13.10
2022-10-30T14:31:04.406Z,13.08
2022-10-30T14:36:37.721Z,13.03
2022-10-30T14:42:55.560Z,13.02
2022-10-30T14:48:17.982Z,12.99
2022-10-30T14:54:18.807Z,12.91
2022-10-30T14:59:51.929Z,12.87
2022-10-30T15:05:53.251Z,12.79
2022-10-30T15:11:28.273Z,12.77
2022-10-30T15:16:53.142Z,12.74
2022-10-30T15:22:05.052Z,12.72
2022-10-30T15:27:22.390Z,12.70
2022-10-30T15:32:29.201Z,12.67
2022-10-30T15:37:36.240Z,12.55
2022-10-30T15:42:47.025Z,12.55
2022-10-30T15:48:05.357Z,12.54
2022-10-30T15:53:21.119Z,12.44
2022-10-30T15:58:34.242Z,12.44
2022-10-30T16:03:47.388Z,12.29
2022-10-30T16:08:55.373Z,12.32
2022-10-30T16:14:10.488Z,12.26
2022-10-30T16:19:29.184Z,12.07
2022-10-30T16:24:38.401Z,12.11
2022-10-30T16:29:49.053Z,12.16
2022-10-30T16:34:59.437Z,12.17
2022-10-30T16:40:14.277Z,12.14
2022-10-30T16:45:51.024Z,11.92
2022-10-30T16:51:05.774Z,11.61
2022-10-30T16:56:23.996Z,11.77
2022-10-30T17:01:32.732Z,11.79
2022-10-30T17:06:42.230Z,11.73
2022-10-30T17:12:08.802Z,11.62
2022-10-30T17:17:29.513Z,11.70
2022-10-30T17:22:36.265Z,11.70
2022-10-30T17:27:50.046Z,11.29
2022-10-30T17:32:58.107Z,11.23
2022-10-30T17:38:04.997Z,11.39
2022-10-30T17:43:19.847Z,11.43
2022-10-30T17:48:30.939Z,11.45
2022-10-30T17:53:38.294Z,11.44
2022-10-30T17:58:44.709Z,11.41
2022-10-30T18:03:57.234Z,11.31
2022-10-30T18:09:04.805Z,11.19
2022-10-30T18:14:13.025Z,11.21
2022-10-30T18:19:21.628Z,11.18
2022-10-30T18:24:28.978Z,11.16
2022-10-30T18:29:39.551Z,10.98
2022-10-30T18:34:49.756Z,10.92
2022-10-30T18:39:56.588Z,10.91
2022-10-30T18:45:03.982Z,10.81
2022-10-30T18:50:12.677Z,10.75
2022-10-30T18:55:23.508Z,10.81
2022-10-30T19:00:39.756Z,10.78
2022-10-30T19:05:59.345Z,10.24
2022-10-30T19:11:06.973Z,10.43
2022-10-30T19:16:16.478Z,10.59
2022-10-30T19:21:28.427Z,10.31
2022-10-30T19:26:35.403Z,10.28
2022-10-30T19:31:42.778Z,10.07
2022-10-30T19:36:52.267Z,10.20
2022-10-30T19:42:02.370Z,10.21
2022-10-30T19:47:14.908Z,10.12
2022-10-30T19:52:29.155Z,9.68
2022-10-30T19:57:40.032Z,9.93
2022-10-30T20:02:47.005Z,9.87
2022-10-30T20:08:04.965Z,10.01
2022-10-30T20:13:17.807Z,9.58
2022-10-30T20:18:34.357Z,9.71
2022-10-30T20:23:43.357Z,9.77
2022-10-30T20:28:50.606Z,9.71
2022-10-30T20:33:57.713Z,9.82
2022-10-30T20:39:07.271Z,9.80
2022-10-30T20:44:14.926Z,9.64
2022-10-30T20:49:21.901Z,9.70
2022-10-30T20:54:30.090Z,9.60
2022-10-30T20:59:36.247Z,9.52
2022-10-30T21:04:42.570Z,9.33
2022-10-30T21:09:51.375Z,9.44
2022-10-30T21:14:57.656Z,9.43
2022-10-30T21:20:04.073Z,9.17
2022-10-30T21:25:13.453Z,9.29
2022-10-30T21:30:20.358Z,9.27
2022-10-30T21:35:26.260Z,8.52
2022-10-30T21:40:34.314Z,8.87
2022-10-30T21:45:41.488Z,9.01
2022-10-30T21:50:47.656Z,8.85
2022-10-30T21:55:55.352Z,9.00
2022-10-30T22:01:01.591Z,8.77
2022-10-30T22:06:10.766Z,8.79
2022-10-30T22:11:18.310Z,8.93
2022-10-30T22:16:26.031Z,8.83
2022-10-30T22:21:32.320Z,8.86
2022-10-30T22:26:39.794Z,8.78
2022-10-30T22:31:45.954Z,8.77
2022-10-30T22:36:53.463Z,8.55
2022-10-30T22:42:00.784Z,8.35
2022-10-30T22:47:08.551Z,8.12
2022-10-30T22:52:14.787Z,8.53
2022-10-30T22:57:22.424Z,8.61
2022-10-30T23:02:28.470Z,8.14
2022-10-30T23:07:34.405Z,8.47
2022-10-30T23:12:41.861Z,8.18
2022-10-30T23:17:49.716Z,8.00
2022-10-30T23:22:55.754Z,8.32
2022-10-30T23:28:03.410Z,7.94
2022-10-30T23:33:09.326Z,8.12
2022-10-30T23:38:15.400Z,7.61
2022-10-30T23:43:23.147Z,7.73
2022-10-30T23:48:29.253Z,8.07
2022-10-30T23:53:35.230Z,8.18
2022-10-30T23:58:45.611Z,8.06
